Terminal Aerodrome Forecast
Issued by NWS

Home | Current Version | Previous Version | Text Only | Print | Product List | Glossary On
Versions: 1 2 3 4 5 6 7 8 9 10 11 12 13 14 15 16 17 18 19 20
000
FTUS41 KBGM 262300
TAFRME
TAF
KRME 262320Z 2700/2724 34006KT 1SM -SN OVC015
      TEMPO 2702/2704 4SM -SN
     FM270400 33005KT 4SM -SHSN OVC025
     FM271800 29004KT P6SM OVC025=

USA.gov is the U.S. government's official web portal to all federal, state and local government web resources and services.